sensor_id;sensor_type;location;lat;lon;timestamp;temperature;humidity
37412;DHT22;23278;52.110;6.050;2023-11-19T00:00:34;13.40;99.90
37412;DHT22;23278;52.110;6.050;2023-11-19T00:03:00;13.40;99.90
37412;DHT22;23278;52.110;6.050;2023-11-19T00:05:26;13.40;99.90
37412;DHT22;23278;52.110;6.050;2023-11-19T00:07:53;13.40;99.90
37412;DHT22;23278;52.110;6.050;2023-11-19T00:10:19;13.40;99.90
37412;DHT22;23278;52.110;6.050;2023-11-19T00:12:47;13.40;99.90
37412;DHT22;23278;52.110;6.050;2023-11-19T00:15:14;13.40;99.90
37412;DHT22;23278;52.110;6.050;2023-11-19T00:17:41;13.50;99.90
37412;DHT22;23278;52.110;6.050;2023-11-19T00:20:15;13.50;99.90
37412;DHT22;23278;52.110;6.050;2023-11-19T00:22:44;13.50;99.90
37412;DHT22;23278;52.110;6.050;2023-11-19T00:25:13;13.60;99.90
37412;DHT22;23278;52.110;6.050;2023-11-19T00:27:39;13.60;99.90
37412;DHT22;23278;52.110;6.050;2023-11-19T00:30:06;13.60;99.90
37412;DHT22;23278;52.110;6.050;2023-11-19T00:32:33;13.60;99.90
37412;DHT22;23278;52.110;6.050;2023-11-19T00:34:59;13.60;99.90
37412;DHT22;23278;52.110;6.050;2023-11-19T00:37:25;13.60;99.90
37412;DHT22;23278;52.110;6.050;2023-11-19T00:39:52;13.60;99.90
37412;DHT22;23278;52.110;6.050;2023-11-19T00:42:18;13.60;99.90
37412;DHT22;23278;52.110;6.050;2023-11-19T00:44:44;13.60;99.90
37412;DHT22;23278;52.110;6.050;2023-11-19T00:47:11;13.70;99.90
37412;DHT22;23278;52.110;6.050;2023-11-19T00:49:38;13.70;99.90
37412;DHT22;23278;52.110;6.050;2023-11-19T00:52:04;13.70;99.90
37412;DHT22;23278;52.110;6.050;2023-11-19T00:54:29;13.70;99.90
37412;DHT22;23278;52.110;6.050;2023-11-19T00:56:56;13.70;99.90
37412;DHT22;23278;52.110;6.050;2023-11-19T00:59:22;13.70;99.90
37412;DHT22;23278;52.110;6.050;2023-11-19T01:01:48;13.70;99.90
37412;DHT22;23278;52.110;6.050;2023-11-19T01:04:14;13.70;99.90
37412;DHT22;23278;52.110;6.050;2023-11-19T01:06:40;13.70;99.90
37412;DHT22;23278;52.110;6.050;2023-11-19T01:09:08;13.60;99.90
37412;DHT22;23278;52.110;6.050;2023-11-19T01:11:34;13.50;99.90
37412;DHT22;23278;52.110;6.050;2023-11-19T01:14:00;13.50;99.90
37412;DHT22;23278;52.110;6.050;2023-11-19T01:16:26;13.50;99.90
37412;DHT22;23278;52.110;6.050;2023-11-19T01:18:52;13.50;99.90
37412;DHT22;23278;52.110;6.050;2023-11-19T01:21:19;13.50;99.90
37412;DHT22;23278;52.110;6.050;2023-11-19T01:23:45;13.50;99.90
37412;DHT22;23278;52.110;6.050;2023-11-19T01:26:12;13.50;99.90
37412;DHT22;23278;52.110;6.050;2023-11-19T01:28:39;13.50;99.90
37412;DHT22;23278;52.110;6.050;2023-11-19T01:31:15;13.60;99.90
37412;DHT22;23278;52.110;6.050;2023-11-19T01:33:41;13.60;99.90
37412;DHT22;23278;52.110;6.050;2023-11-19T01:36:13;13.50;99.90
37412;DHT22;23278;52.110;6.050;2023-11-19T01:38:39;13.50;99.90
37412;DHT22;23278;52.110;6.050;2023-11-19T01:41:05;13.40;99.90
37412;DHT22;23278;52.110;6.050;2023-11-19T01:43:35;13.40;99.90
37412;DHT22;23278;52.110;6.050;2023-11-19T01:46:02;13.40;99.90
37412;DHT22;23278;52.110;6.050;2023-11-19T01:48:34;13.40;99.90
37412;DHT22;23278;52.110;6.050;2023-11-19T01:51:02;13.40;99.90
37412;DHT22;23278;52.110;6.050;2023-11-19T01:53:30;13.40;99.90
37412;DHT22;23278;52.110;6.050;2023-11-19T01:55:57;13.40;99.90
37412;DHT22;23278;52.110;6.050;2023-11-19T01:58:24;13.40;99.90
37412;DHT22;23278;52.110;6.050;2023-11-19T02:00:50;13.40;99.90
37412;DHT22;23278;52.110;6.050;2023-11-19T02:03:16;13.40;99.90
37412;DHT22;23278;52.110;6.050;2023-11-19T02:05:42;13.40;99.90
37412;DHT22;23278;52.110;6.050;2023-11-19T02:08:08;13.40;99.90
37412;DHT22;23278;52.110;6.050;2023-11-19T02:10:34;13.50;99.90
37412;DHT22;23278;52.110;6.050;2023-11-19T02:13:00;13.50;99.90
37412;DHT22;23278;52.110;6.050;2023-11-19T02:15:26;13.50;99.90
37412;DHT22;23278;52.110;6.050;2023-11-19T02:17:52;13.50;99.90
37412;DHT22;23278;52.110;6.050;2023-11-19T02:20:18;13.50;99.90
37412;DHT22;23278;52.110;6.050;2023-11-19T02:22:46;13.50;99.90
37412;DHT22;23278;52.110;6.050;2023-11-19T02:25:25;13.50;99.90
37412;DHT22;23278;52.110;6.050;2023-11-19T02:28:02;13.50;99.90
37412;DHT22;23278;52.110;6.050;2023-11-19T02:30:29;13.50;99.90
37412;DHT22;23278;52.110;6.050;2023-11-19T02:32:56;13.50;99.90
37412;DHT22;23278;52.110;6.050;2023-11-19T02:35:26;13.50;99.90
37412;DHT22;23278;52.110;6.050;2023-11-19T02:37:52;13.50;99.90
37412;DHT22;23278;52.110;6.050;2023-11-19T02:40:18;13.50;99.90
37412;DHT22;23278;52.110;6.050;2023-11-19T02:42:44;13.50;99.90
37412;DHT22;23278;52.110;6.050;2023-11-19T02:45:10;13.60;99.90
37412;DHT22;23278;52.110;6.050;2023-11-19T02:47:41;13.60;99.90
37412;DHT22;23278;52.110;6.050;2023-11-19T02:50:11;13.50;99.90
37412;DHT22;23278;52.110;6.050;2023-11-19T02:52:46;13.50;99.90
37412;DHT22;23278;52.110;6.050;2023-11-19T02:55:12;13.50;99.90
37412;DHT22;23278;52.110;6.050;2023-11-19T02:57:39;13.40;99.90
37412;DHT22;23278;52.110;6.050;2023-11-19T03:00:20;13.40;99.90
37412;DHT22;23278;52.110;6.050;2023-11-19T03:02:50;13.40;99.90
37412;DHT22;23278;52.110;6.050;2023-11-19T03:05:25;13.30;99.90
37412;DHT22;23278;52.110;6.050;2023-11-19T03:07:52;13.30;99.90
37412;DHT22;23278;52.110;6.050;2023-11-19T03:10:18;13.30;99.90
37412;DHT22;23278;52.110;6.050;2023-11-19T03:12:44;13.30;99.90
37412;DHT22;23278;52.110;6.050;2023-11-19T03:15:13;13.30;99.90
37412;DHT22;23278;52.110;6.050;2023-11-19T03:17:39;13.20;99.90
37412;DHT22;23278;52.110;6.050;2023-11-19T03:20:07;13.20;99.90
37412;DHT22;23278;52.110;6.050;2023-11-19T03:22:37;13.20;99.90
37412;DHT22;23278;52.110;6.050;2023-11-19T03:25:04;13.10;99.90
37412;DHT22;23278;52.110;6.050;2023-11-19T03:27:35;13.10;99.90
37412;DHT22;23278;52.110;6.050;2023-11-19T03:30:02;13.00;99.90
37412;DHT22;23278;52.110;6.050;2023-11-19T03:32:34;13.00;99.90
37412;DHT22;23278;52.110;6.050;2023-11-19T03:35:02;13.00;99.90
37412;DHT22;23278;52.110;6.050;2023-11-19T03:37:30;13.00;99.90
37412;DHT22;23278;52.110;6.050;2023-11-19T03:39:57;13.10;99.90
37412;DHT22;23278;52.110;6.050;2023-11-19T03:42:31;13.10;99.90
37412;DHT22;23278;52.110;6.050;2023-11-19T03:44:57;13.00;99.90
37412;DHT22;23278;52.110;6.050;2023-11-19T03:47:23;13.00;99.90
37412;DHT22;23278;52.110;6.050;2023-11-19T03:49:50;13.00;99.90
37412;DHT22;23278;52.110;6.050;2023-11-19T03:52:19;12.90;99.90
37412;DHT22;23278;52.110;6.050;2023-11-19T03:54:45;12.80;99.90
37412;DHT22;23278;52.110;6.050;2023-11-19T03:57:14;12.60;99.90
37412;DHT22;23278;52.110;6.050;2023-11-19T03:59:41;12.50;99.90
37412;DHT22;23278;52.110;6.050;2023-11-19T04:02:07;12.40;99.90
37412;DHT22;23278;52.110;6.050;2023-11-19T04:04:33;12.40;99.90
37412;DHT22;23278;52.110;6.050;2023-11-19T04:07:00;12.30;99.90
37412;DHT22;23278;52.110;6.050;2023-11-19T04:09:26;12.30;99.90
37412;DHT22;23278;52.110;6.050;2023-11-19T04:11:52;12.20;99.90
37412;DHT22;23278;52.110;6.050;2023-11-19T04:14:18;12.20;99.90
37412;DHT22;23278;52.110;6.050;2023-11-19T04:16:44;12.10;99.90
37412;DHT22;23278;52.110;6.050;2023-11-19T04:19:11;12.10;99.90
37412;DHT22;23278;52.110;6.050;2023-11-19T04:21:39;12.10;99.90
37412;DHT22;23278;52.110;6.050;2023-11-19T04:24:06;12.00;99.90
37412;DHT22;23278;52.110;6.050;2023-11-19T04:26:33;12.00;99.90
37412;DHT22;23278;52.110;6.050;2023-11-19T04:28:59;11.90;99.90
37412;DHT22;23278;52.110;6.050;2023-11-19T04:31:29;11.90;99.90
37412;DHT22;23278;52.110;6.050;2023-11-19T04:33:57;11.90;99.90
37412;DHT22;23278;52.110;6.050;2023-11-19T04:36:23;11.90;99.90
37412;DHT22;23278;52.110;6.050;2023-11-19T04:38:50;11.90;99.90
37412;DHT22;23278;52.110;6.050;2023-11-19T04:41:16;11.90;99.90
37412;DHT22;23278;52.110;6.050;2023-11-19T04:43:42;12.00;99.90
37412;DHT22;23278;52.110;6.050;2023-11-19T04:46:09;12.10;99.90
37412;DHT22;23278;52.110;6.050;2023-11-19T04:48:35;12.20;99.90
37412;DHT22;23278;52.110;6.050;2023-11-19T04:51:01;12.20;99.90
37412;DHT22;23278;52.110;6.050;2023-11-19T04:53:30;12.20;99.90
37412;DHT22;23278;52.110;6.050;2023-11-19T04:55:55;12.20;99.90
37412;DHT22;23278;52.110;6.050;2023-11-19T04:58:21;12.20;99.90
37412;DHT22;23278;52.110;6.050;2023-11-19T05:00:48;12.20;99.90
37412;DHT22;23278;52.110;6.050;2023-11-19T05:03:14;12.20;99.90
37412;DHT22;23278;52.110;6.050;2023-11-19T05:05:39;12.20;99.90
37412;DHT22;23278;52.110;6.050;2023-11-19T05:08:05;12.10;99.90
37412;DHT22;23278;52.110;6.050;2023-11-19T05:10:31;12.00;99.90
37412;DHT22;23278;52.110;6.050;2023-11-19T05:12:57;12.00;99.90
37412;DHT22;23278;52.110;6.050;2023-11-19T05:15:23;12.00;99.90
37412;DHT22;23278;52.110;6.050;2023-11-19T05:17:49;11.90;99.90
37412;DHT22;23278;52.110;6.050;2023-11-19T05:20:15;11.80;99.90
37412;DHT22;23278;52.110;6.050;2023-11-19T05:22:42;11.80;99.90
37412;DHT22;23278;52.110;6.050;2023-11-19T05:25:08;11.70;99.90
37412;DHT22;23278;52.110;6.050;2023-11-19T05:27:37;11.70;99.90
37412;DHT22;23278;52.110;6.050;2023-11-19T05:30:05;11.70;99.90
37412;DHT22;23278;52.110;6.050;2023-11-19T05:32:33;11.80;99.90
37412;DHT22;23278;52.110;6.050;2023-11-19T05:34:59;11.80;99.90
37412;DHT22;23278;52.110;6.050;2023-11-19T05:37:25;11.80;99.90
37412;DHT22;23278;52.110;6.050;2023-11-19T05:39:51;11.80;99.90
37412;DHT22;23278;52.110;6.050;2023-11-19T05:42:18;11.70;99.90
37412;DHT22;23278;52.110;6.050;2023-11-19T05:44:44;11.70;99.90
37412;DHT22;23278;52.110;6.050;2023-11-19T05:47:10;11.70;99.90
37412;DHT22;23278;52.110;6.050;2023-11-19T05:49:36;11.70;99.90
37412;DHT22;23278;52.110;6.050;2023-11-19T05:52:02;11.70;99.90
37412;DHT22;23278;52.110;6.050;2023-11-19T05:54:29;11.70;99.90
37412;DHT22;23278;52.110;6.050;2023-11-19T05:56:55;11.70;99.90
37412;DHT22;23278;52.110;6.050;2023-11-19T05:59:21;11.80;99.90
37412;DHT22;23278;52.110;6.050;2023-11-19T06:01:48;11.90;99.90
37412;DHT22;23278;52.110;6.050;2023-11-19T06:04:14;11.80;99.90
37412;DHT22;23278;52.110;6.050;2023-11-19T06:06:41;11.90;99.90
37412;DHT22;23278;52.110;6.050;2023-11-19T06:09:07;12.00;99.90
37412;DHT22;23278;52.110;6.050;2023-11-19T06:11:34;12.00;99.90
37412;DHT22;23278;52.110;6.050;2023-11-19T06:14:02;12.00;99.90
37412;DHT22;23278;52.110;6.050;2023-11-19T06:16:29;12.00;99.90
37412;DHT22;23278;52.110;6.050;2023-11-19T06:18:55;11.90;99.90
37412;DHT22;23278;52.110;6.050;2023-11-19T06:21:20;12.00;99.90
37412;DHT22;23278;52.110;6.050;2023-11-19T06:23:46;11.90;99.90
37412;DHT22;23278;52.110;6.050;2023-11-19T06:26:12;11.90;99.90
37412;DHT22;23278;52.110;6.050;2023-11-19T06:28:39;11.90;99.90
37412;DHT22;23278;52.110;6.050;2023-11-19T06:31:05;11.90;99.90
37412;DHT22;23278;52.110;6.050;2023-11-19T06:33:32;11.80;99.90
37412;DHT22;23278;52.110;6.050;2023-11-19T06:35:59;11.90;99.90
37412;DHT22;23278;52.110;6.050;2023-11-19T06:38:25;11.80;99.90
37412;DHT22;23278;52.110;6.050;2023-11-19T06:40:51;11.80;99.90
37412;DHT22;23278;52.110;6.050;2023-11-19T06:43:17;11.80;99.90
37412;DHT22;23278;52.110;6.050;2023-11-19T06:45:43;11.80;99.90
37412;DHT22;23278;52.110;6.050;2023-11-19T06:48:09;11.80;99.90
37412;DHT22;23278;52.110;6.050;2023-11-19T06:50:35;11.80;99.90
37412;DHT22;23278;52.110;6.050;2023-11-19T06:53:01;11.80;99.90
37412;DHT22;23278;52.110;6.050;2023-11-19T06:55:27;11.90;99.90
37412;DHT22;23278;52.110;6.050;2023-11-19T06:57:53;11.90;99.90
37412;DHT22;23278;52.110;6.050;2023-11-19T07:00:19;11.90;99.90
37412;DHT22;23278;52.110;6.050;2023-11-19T07:02:46;11.90;99.90
37412;DHT22;23278;52.110;6.050;2023-11-19T07:05:12;11.90;99.90
37412;DHT22;23278;52.110;6.050;2023-11-19T07:07:38;12.00;99.90
37412;DHT22;23278;52.110;6.050;2023-11-19T07:10:06;12.00;99.90
37412;DHT22;23278;52.110;6.050;2023-11-19T07:12:34;11.90;99.90
37412;DHT22;23278;52.110;6.050;2023-11-19T07:15:02;12.00;99.90
37412;DHT22;23278;52.110;6.050;2023-11-19T07:17:30;12.00;99.90
37412;DHT22;23278;52.110;6.050;2023-11-19T07:19:56;11.90;99.90
37412;DHT22;23278;52.110;6.050;2023-11-19T07:22:25;11.90;99.90
37412;DHT22;23278;52.110;6.050;2023-11-19T07:24:51;11.90;99.90
37412;DHT22;23278;52.110;6.050;2023-11-19T07:27:19;11.90;99.90
37412;DHT22;23278;52.110;6.050;2023-11-19T07:29:45;12.00;99.90
37412;DHT22;23278;52.110;6.050;2023-11-19T07:32:11;12.10;99.90
37412;DHT22;23278;52.110;6.050;2023-11-19T07:34:39;12.10;99.90
37412;DHT22;23278;52.110;6.050;2023-11-19T07:37:05;12.20;99.90
37412;DHT22;23278;52.110;6.050;2023-11-19T07:39:31;12.20;99.90
37412;DHT22;23278;52.110;6.050;2023-11-19T07:41:58;12.20;99.90
37412;DHT22;23278;52.110;6.050;2023-11-19T07:44:24;12.20;99.90
37412;DHT22;23278;52.110;6.050;2023-11-19T07:46:51;12.30;99.90
37412;DHT22;23278;52.110;6.050;2023-11-19T07:49:17;12.30;99.90
37412;DHT22;23278;52.110;6.050;2023-11-19T07:51:43;12.40;99.90
37412;DHT22;23278;52.110;6.050;2023-11-19T07:54:09;12.40;99.90
37412;DHT22;23278;52.110;6.050;2023-11-19T07:56:35;12.40;99.90
37412;DHT22;23278;52.110;6.050;2023-11-19T07:59:03;12.40;99.90
37412;DHT22;23278;52.110;6.050;2023-11-19T08:01:29;12.40;99.90
37412;DHT22;23278;52.110;6.050;2023-11-19T08:03:55;12.40;99.90
37412;DHT22;23278;52.110;6.050;2023-11-19T08:06:21;12.30;99.90
37412;DHT22;23278;52.110;6.050;2023-11-19T08:08:49;12.30;99.90
37412;DHT22;23278;52.110;6.050;2023-11-19T08:11:15;12.20;99.90
37412;DHT22;23278;52.110;6.050;2023-11-19T08:13:40;12.20;99.90
37412;DHT22;23278;52.110;6.050;2023-11-19T08:16:07;12.20;99.90
37412;DHT22;23278;52.110;6.050;2023-11-19T08:18:33;12.20;99.90
37412;DHT22;23278;52.110;6.050;2023-11-19T08:20:59;12.10;99.90
37412;DHT22;23278;52.110;6.050;2023-11-19T08:23:26;12.20;99.90
37412;DHT22;23278;52.110;6.050;2023-11-19T08:25:54;12.20;99.90
37412;DHT22;23278;52.110;6.050;2023-11-19T08:28:20;12.20;99.90
37412;DHT22;23278;52.110;6.050;2023-11-19T08:30:46;12.20;99.90
37412;DHT22;23278;52.110;6.050;2023-11-19T08:33:12;12.20;99.90
37412;DHT22;23278;52.110;6.050;2023-11-19T08:35:38;12.20;99.90
37412;DHT22;23278;52.110;6.050;2023-11-19T08:38:04;12.30;99.90
37412;DHT22;23278;52.110;6.050;2023-11-19T08:40:30;12.30;99.90
37412;DHT22;23278;52.110;6.050;2023-11-19T08:42:56;12.40;99.90
37412;DHT22;23278;52.110;6.050;2023-11-19T08:45:22;12.50;99.90
37412;DHT22;23278;52.110;6.050;2023-11-19T08:47:48;12.60;99.90
37412;DHT22;23278;52.110;6.050;2023-11-19T08:50:14;12.60;99.90
37412;DHT22;23278;52.110;6.050;2023-11-19T08:52:40;12.60;99.90
37412;DHT22;23278;52.110;6.050;2023-11-19T08:55:07;12.70;99.90
37412;DHT22;23278;52.110;6.050;2023-11-19T08:57:32;12.80;99.90
37412;DHT22;23278;52.110;6.050;2023-11-19T08:59:59;13.00;99.90
37412;DHT22;23278;52.110;6.050;2023-11-19T09:02:25;13.10;99.90
37412;DHT22;23278;52.110;6.050;2023-11-19T09:04:51;13.10;99.90
37412;DHT22;23278;52.110;6.050;2023-11-19T09:07:17;13.10;99.90
37412;DHT22;23278;52.110;6.050;2023-11-19T09:09:43;13.20;99.90
37412;DHT22;23278;52.110;6.050;2023-11-19T09:12:09;13.30;99.90
37412;DHT22;23278;52.110;6.050;2023-11-19T09:14:35;13.50;99.90
37412;DHT22;23278;52.110;6.050;2023-11-19T09:17:00;13.70;99.90
37412;DHT22;23278;52.110;6.050;2023-11-19T09:19:26;14.00;99.90
37412;DHT22;23278;52.110;6.050;2023-11-19T09:21:53;14.00;99.90
37412;DHT22;23278;52.110;6.050;2023-11-19T09:24:19;13.90;99.90
37412;DHT22;23278;52.110;6.050;2023-11-19T09:26:45;13.90;99.90
37412;DHT22;23278;52.110;6.050;2023-11-19T09:29:11;14.10;99.90
37412;DHT22;23278;52.110;6.050;2023-11-19T09:31:40;14.40;99.90
37412;DHT22;23278;52.110;6.050;2023-11-19T09:34:06;14.60;99.90
37412;DHT22;23278;52.110;6.050;2023-11-19T09:36:32;14.80;99.90
37412;DHT22;23278;52.110;6.050;2023-11-19T09:38:58;15.00;99.90
37412;DHT22;23278;52.110;6.050;2023-11-19T09:41:26;15.00;99.70
37412;DHT22;23278;52.110;6.050;2023-11-19T09:43:54;15.00;99.40
37412;DHT22;23278;52.110;6.050;2023-11-19T09:46:21;14.90;99.20
37412;DHT22;23278;52.110;6.050;2023-11-19T09:48:54;14.70;99.30
37412;DHT22;23278;52.110;6.050;2023-11-19T09:51:21;14.80;99.70
37412;DHT22;23278;52.110;6.050;2023-11-19T09:53:48;14.80;99.40
37412;DHT22;23278;52.110;6.050;2023-11-19T09:56:15;14.70;99.50
37412;DHT22;23278;52.110;6.050;2023-11-19T09:58:42;14.90;99.90
37412;DHT22;23278;52.110;6.050;2023-11-19T10:01:08;15.00;99.30
37412;DHT22;23278;52.110;6.050;2023-11-19T10:03:38;14.90;99.10
37412;DHT22;23278;52.110;6.050;2023-11-19T10:06:08;14.80;99.20
37412;DHT22;23278;52.110;6.050;2023-11-19T10:08:38;14.70;99.50
37412;DHT22;23278;52.110;6.050;2023-11-19T10:11:06;14.50;99.90
37412;DHT22;23278;52.110;6.050;2023-11-19T10:13:35;14.50;99.90
37412;DHT22;23278;52.110;6.050;2023-11-19T10:16:29;14.70;99.90
37412;DHT22;23278;52.110;6.050;2023-11-19T10:18:58;15.00;99.30
37412;DHT22;23278;52.110;6.050;2023-11-19T10:21:24;15.10;99.50
37412;DHT22;23278;52.110;6.050;2023-11-19T10:23:59;15.30;99.00
37412;DHT22;23278;52.110;6.050;2023-11-19T10:26:27;15.20;98.30
37412;DHT22;23278;52.110;6.050;2023-11-19T10:28:53;15.10;98.50
37412;DHT22;23278;52.110;6.050;2023-11-19T10:31:21;15.20;98.40
37412;DHT22;23278;52.110;6.050;2023-11-19T10:33:51;15.10;98.10
37412;DHT22;23278;52.110;6.050;2023-11-19T10:36:17;15.00;98.30
37412;DHT22;23278;52.110;6.050;2023-11-19T10:38:53;14.90;98.40
37412;DHT22;23278;52.110;6.050;2023-11-19T10:41:32;14.70;98.40
37412;DHT22;23278;52.110;6.050;2023-11-19T10:43:59;14.50;98.80
37412;DHT22;23278;52.110;6.050;2023-11-19T10:46:37;14.40;99.00
37412;DHT22;23278;52.110;6.050;2023-11-19T10:49:04;14.40;99.30
37412;DHT22;23278;52.110;6.050;2023-11-19T10:51:32;14.50;99.40
37412;DHT22;23278;52.110;6.050;2023-11-19T10:54:03;14.70;99.00
37412;DHT22;23278;52.110;6.050;2023-11-19T10:56:33;15.00;98.70
37412;DHT22;23278;52.110;6.050;2023-11-19T10:59:00;15.20;98.20
37412;DHT22;23278;52.110;6.050;2023-11-19T11:01:41;15.30;97.80
37412;DHT22;23278;52.110;6.050;2023-11-19T11:04:14;15.40;97.60
37412;DHT22;23278;52.110;6.050;2023-11-19T11:06:43;15.30;97.30
37412;DHT22;23278;52.110;6.050;2023-11-19T11:09:11;15.30;97.40
37412;DHT22;23278;52.110;6.050;2023-11-19T11:11:41;15.40;97.00
37412;DHT22;23278;52.110;6.050;2023-11-19T11:14:13;15.40;96.40
37412;DHT22;23278;52.110;6.050;2023-11-19T11:16:43;15.50;96.20
37412;DHT22;23278;52.110;6.050;2023-11-19T11:19:10;15.50;96.10
37412;DHT22;23278;52.110;6.050;2023-11-19T11:21:39;15.40;96.40
37412;DHT22;23278;52.110;6.050;2023-11-19T11:37:39;15.00;96.10
37412;DHT22;23278;52.110;6.050;2023-11-19T11:40:15;15.00;95.90
37412;DHT22;23278;52.110;6.050;2023-11-19T11:42:41;14.90;96.20
37412;DHT22;23278;52.110;6.050;2023-11-19T11:45:12;14.80;96.60
37412;DHT22;23278;52.110;6.050;2023-11-19T11:50:25;14.70;96.80
37412;DHT22;23278;52.110;6.050;2023-11-19T11:55:24;14.70;96.80
37412;DHT22;23278;52.110;6.050;2023-11-19T11:57:50;14.90;96.60
37412;DHT22;23278;52.110;6.050;2023-11-19T12:00:42;15.30;96.20
37412;DHT22;23278;52.110;6.050;2023-11-19T12:03:10;15.80;95.30
37412;DHT22;23278;52.110;6.050;2023-11-19T12:05:44;16.30;94.40
37412;DHT22;23278;52.110;6.050;2023-11-19T12:08:14;16.20;94.10
37412;DHT22;23278;52.110;6.050;2023-11-19T12:10:51;15.80;94.70
37412;DHT22;23278;52.110;6.050;2023-11-19T12:13:19;15.40;95.50
37412;DHT22;23278;52.110;6.050;2023-11-19T12:18:30;14.90;97.00
37412;DHT22;23278;52.110;6.050;2023-11-19T12:21:02;15.00;96.80
37412;DHT22;23278;52.110;6.050;2023-11-19T12:23:32;15.00;96.80
37412;DHT22;23278;52.110;6.050;2023-11-19T12:25:58;15.00;96.90
37412;DHT22;23278;52.110;6.050;2023-11-19T12:28:25;14.80;96.90
37412;DHT22;23278;52.110;6.050;2023-11-19T12:30:54;14.60;97.00
37412;DHT22;23278;52.110;6.050;2023-11-19T12:33:32;14.60;97.30
37412;DHT22;23278;52.110;6.050;2023-11-19T12:35:58;14.80;96.70
37412;DHT22;23278;52.110;6.050;2023-11-19T12:38:26;15.10;96.10
37412;DHT22;23278;52.110;6.050;2023-11-19T12:41:08;15.30;95.40
37412;DHT22;23278;52.110;6.050;2023-11-19T12:43:37;15.20;95.20
37412;DHT22;23278;52.110;6.050;2023-11-19T12:46:22;15.20;95.20
37412;DHT22;23278;52.110;6.050;2023-11-19T12:48:49;15.30;95.10
37412;DHT22;23278;52.110;6.050;2023-11-19T12:51:16;15.20;95.40
37412;DHT22;23278;52.110;6.050;2023-11-19T12:53:52;14.90;95.70
37412;DHT22;23278;52.110;6.050;2023-11-19T12:56:23;14.70;96.30
37412;DHT22;23278;52.110;6.050;2023-11-19T12:58:50;14.60;96.50
37412;DHT22;23278;52.110;6.050;2023-11-19T13:01:18;14.50;96.60
37412;DHT22;23278;52.110;6.050;2023-11-19T13:03:45;14.50;96.50
37412;DHT22;23278;52.110;6.050;2023-11-19T13:06:13;14.40;96.40
37412;DHT22;23278;52.110;6.050;2023-11-19T13:08:47;14.40;96.60
37412;DHT22;23278;52.110;6.050;2023-11-19T13:11:32;14.50;96.60
37412;DHT22;23278;52.110;6.050;2023-11-19T13:14:04;14.60;96.30
37412;DHT22;23278;52.110;6.050;2023-11-19T13:16:31;14.60;96.20
37412;DHT22;23278;52.110;6.050;2023-11-19T13:18:57;14.60;96.40
37412;DHT22;23278;52.110;6.050;2023-11-19T13:21:23;14.70;96.30
37412;DHT22;23278;52.110;6.050;2023-11-19T13:23:50;14.80;95.70
37412;DHT22;23278;52.110;6.050;2023-11-19T13:26:16;14.80;95.60
37412;DHT22;23278;52.110;6.050;2023-11-19T13:28:41;14.80;95.70
37412;DHT22;23278;52.110;6.050;2023-11-19T13:31:08;14.80;95.70
37412;DHT22;23278;52.110;6.050;2023-11-19T13:33:34;14.80;95.80
37412;DHT22;23278;52.110;6.050;2023-11-19T13:36:00;14.80;95.70
37412;DHT22;23278;52.110;6.050;2023-11-19T13:38:34;14.70;95.60
37412;DHT22;23278;52.110;6.050;2023-11-19T13:41:05;14.70;95.70
37412;DHT22;23278;52.110;6.050;2023-11-19T13:43:31;14.70;95.70
37412;DHT22;23278;52.110;6.050;2023-11-19T13:45:58;14.70;95.70
37412;DHT22;23278;52.110;6.050;2023-11-19T13:48:24;14.80;95.70
37412;DHT22;23278;52.110;6.050;2023-11-19T13:50:50;14.70;95.90
37412;DHT22;23278;52.110;6.050;2023-11-19T13:53:16;14.80;95.90
37412;DHT22;23278;52.110;6.050;2023-11-19T13:55:42;14.80;96.00
37412;DHT22;23278;52.110;6.050;2023-11-19T13:58:09;14.80;96.10
37412;DHT22;23278;52.110;6.050;2023-11-19T14:00:36;14.80;96.40
37412;DHT22;23278;52.110;6.050;2023-11-19T14:03:02;14.80;96.50
37412;DHT22;23278;52.110;6.050;2023-11-19T14:05:28;14.70;96.80
37412;DHT22;23278;52.110;6.050;2023-11-19T14:07:54;14.60;96.90
37412;DHT22;23278;52.110;6.050;2023-11-19T14:10:22;14.50;97.20
37412;DHT22;23278;52.110;6.050;2023-11-19T14:12:48;14.40;98.40
37412;DHT22;23278;52.110;6.050;2023-11-19T14:15:15;13.90;99.90
37412;DHT22;23278;52.110;6.050;2023-11-19T14:17:45;13.50;99.90
37412;DHT22;23278;52.110;6.050;2023-11-19T14:20:11;13.20;99.90
37412;DHT22;23278;52.110;6.050;2023-11-19T14:22:42;12.90;99.90
37412;DHT22;23278;52.110;6.050;2023-11-19T14:25:11;12.70;99.90
37412;DHT22;23278;52.110;6.050;2023-11-19T14:27:38;12.60;99.90
37412;DHT22;23278;52.110;6.050;2023-11-19T14:30:09;12.50;99.90
37412;DHT22;23278;52.110;6.050;2023-11-19T14:32:37;12.40;99.90
37412;DHT22;23278;52.110;6.050;2023-11-19T14:35:04;12.40;99.90
37412;DHT22;23278;52.110;6.050;2023-11-19T14:37:30;12.30;99.90
37412;DHT22;23278;52.110;6.050;2023-11-19T14:39:57;12.20;99.90
37412;DHT22;23278;52.110;6.050;2023-11-19T14:42:24;12.30;99.90
37412;DHT22;23278;52.110;6.050;2023-11-19T14:44:51;12.30;99.90
37412;DHT22;23278;52.110;6.050;2023-11-19T14:47:21;12.30;99.90
37412;DHT22;23278;52.110;6.050;2023-11-19T14:49:47;12.20;99.90
37412;DHT22;23278;52.110;6.050;2023-11-19T14:52:14;12.20;99.90
37412;DHT22;23278;52.110;6.050;2023-11-19T14:54:40;12.10;99.90
37412;DHT22;23278;52.110;6.050;2023-11-19T14:57:06;12.10;99.90
37412;DHT22;23278;52.110;6.050;2023-11-19T14:59:34;12.00;99.90
37412;DHT22;23278;52.110;6.050;2023-11-19T15:02:00;12.00;99.90
37412;DHT22;23278;52.110;6.050;2023-11-19T15:04:29;11.90;99.90
37412;DHT22;23278;52.110;6.050;2023-11-19T15:06:59;11.90;99.90
37412;DHT22;23278;52.110;6.050;2023-11-19T15:09:26;11.90;99.90
37412;DHT22;23278;52.110;6.050;2023-11-19T15:11:55;11.90;99.90
37412;DHT22;23278;52.110;6.050;2023-11-19T15:14:21;11.80;99.90
37412;DHT22;23278;52.110;6.050;2023-11-19T15:16:48;11.80;99.90
37412;DHT22;23278;52.110;6.050;2023-11-19T15:19:17;11.80;99.90
37412;DHT22;23278;52.110;6.050;2023-11-19T15:21:43;11.80;99.90
37412;DHT22;23278;52.110;6.050;2023-11-19T15:24:09;11.80;99.90
37412;DHT22;23278;52.110;6.050;2023-11-19T15:26:37;11.70;99.90
37412;DHT22;23278;52.110;6.050;2023-11-19T15:29:03;11.70;99.90
37412;DHT22;23278;52.110;6.050;2023-11-19T15:31:30;11.70;99.90
37412;DHT22;23278;52.110;6.050;2023-11-19T15:33:56;11.60;99.90
37412;DHT22;23278;52.110;6.050;2023-11-19T15:36:23;11.60;99.90
37412;DHT22;23278;52.110;6.050;2023-11-19T15:38:49;11.70;99.90
37412;DHT22;23278;52.110;6.050;2023-11-19T15:41:15;11.70;99.90
37412;DHT22;23278;52.110;6.050;2023-11-19T15:43:41;11.70;99.90
37412;DHT22;23278;52.110;6.050;2023-11-19T15:46:10;11.70;99.90
37412;DHT22;23278;52.110;6.050;2023-11-19T15:48:37;11.70;99.90
37412;DHT22;23278;52.110;6.050;2023-11-19T15:51:03;11.70;99.90
37412;DHT22;23278;52.110;6.050;2023-11-19T15:53:30;11.70;99.90